sensor_id;sensor_type;location;lat;lon;timestamp;P1;durP1;ratioP1;P2;durP2;ratioP2
57615;SDS011;43816;52.054;-9.494;2023-07-24T00:00:09;5.37;;;5.17;;
57615;SDS011;43816;52.054;-9.494;2023-07-24T00:00:20;5.25;;;5.05;;
57615;SDS011;43816;52.054;-9.494;2023-07-24T00:00:30;5.20;;;5.00;;
57615;SDS011;43816;52.054;-9.494;2023-07-24T00:00:40;5.03;;;4.83;;
57615;SDS011;43816;52.054;-9.494;2023-07-24T00:00:51;5.00;;;4.80;;
57615;SDS011;43816;52.054;-9.494;2023-07-24T00:01:01;4.95;;;4.80;;
57615;SDS011;43816;52.054;-9.494;2023-07-24T00:01:11;5.10;;;4.90;;
57615;SDS011;43816;52.054;-9.494;2023-07-24T00:01:22;5.13;;;4.93;;
57615;SDS011;43816;52.054;-9.494;2023-07-24T00:01:32;5.10;;;4.90;;
57615;SDS011;43816;52.054;-9.494;2023-07-24T00:01:42;5.20;;;5.00;;
57615;SDS011;43816;52.054;-9.494;2023-07-24T00:01:55;5.20;;;5.00;;
57615;SDS011;43816;52.054;-9.494;2023-07-24T00:02:06;5.20;;;5.00;;
57615;SDS011;43816;52.054;-9.494;2023-07-24T00:02:16;5.05;;;4.85;;
57615;SDS011;43816;52.054;-9.494;2023-07-24T00:02:26;5.03;;;4.90;;
57615;SDS011;43816;52.054;-9.494;2023-07-24T00:02:37;4.90;;;4.80;;
57615;SDS011;43816;52.054;-9.494;2023-07-24T00:02:47;4.90;;;4.80;;
57615;SDS011;43816;52.054;-9.494;2023-07-24T00:02:57;5.13;;;4.93;;
57615;SDS011;43816;52.054;-9.494;2023-07-24T00:03:08;5.10;;;4.90;;
57615;SDS011;43816;52.054;-9.494;2023-07-24T00:03:21;5.07;;;4.88;;
57615;SDS011;43816;52.054;-9.494;2023-07-24T00:03:31;5.20;;;5.00;;
57615;SDS011;43816;52.054;-9.494;2023-07-24T00:03:42;5.40;;;5.20;;
57615;SDS011;43816;52.054;-9.494;2023-07-24T00:03:52;5.45;;;5.25;;
57615;SDS011;43816;52.054;-9.494;2023-07-24T00:04:05;5.50;;;5.30;;
57615;SDS011;43816;52.054;-9.494;2023-07-24T00:04:16;5.47;;;5.27;;
57615;SDS011;43816;52.054;-9.494;2023-07-24T00:04:26;5.47;;;5.28;;
57615;SDS011;43816;52.054;-9.494;2023-07-24T00:04:36;5.50;;;5.30;;
57615;SDS011;43816;52.054;-9.494;2023-07-24T00:04:46;5.43;;;5.23;;
57615;SDS011;43816;52.054;-9.494;2023-07-24T00:04:57;5.40;;;5.20;;
57615;SDS011;43816;52.054;-9.494;2023-07-24T00:05:07;5.10;;;4.90;;
57615;SDS011;43816;52.054;-9.494;2023-07-24T00:05:18;5.10;;;4.90;;
57615;SDS011;43816;52.054;-9.494;2023-07-24T00:05:28;5.10;;;4.90;;
57615;SDS011;43816;52.054;-9.494;2023-07-24T00:05:39;5.32;;;5.13;;
57615;SDS011;43816;52.054;-9.494;2023-07-24T00:05:49;5.20;;;5.00;;
57615;SDS011;43816;52.054;-9.494;2023-07-24T00:05:59;5.15;;;4.95;;
57615;SDS011;43816;52.054;-9.494;2023-07-24T00:06:13;5.10;;;4.90;;
57615;SDS011;43816;52.054;-9.494;2023-07-24T00:06:26;5.40;;;5.20;;
57615;SDS011;43816;52.054;-9.494;2023-07-24T00:06:36;5.43;;;5.22;;
57615;SDS011;43816;52.054;-9.494;2023-07-24T00:06:46;5.22;;;5.03;;
57615;SDS011;43816;52.054;-9.494;2023-07-24T00:07:00;5.20;;;5.00;;
57615;SDS011;43816;52.054;-9.494;2023-07-24T00:07:10;5.10;;;4.90;;
57615;SDS011;43816;52.054;-9.494;2023-07-24T00:07:20;5.07;;;4.95;;
57615;SDS011;43816;52.054;-9.494;2023-07-24T00:07:31;5.30;;;5.10;;
57615;SDS011;43816;52.054;-9.494;2023-07-24T00:07:41;5.23;;;5.03;;
57615;SDS011;43816;52.054;-9.494;2023-07-24T00:07:51;5.32;;;5.13;;
57615;SDS011;43816;52.054;-9.494;2023-07-24T00:08:05;5.20;;;5.00;;
57615;SDS011;43816;52.054;-9.494;2023-07-24T00:08:15;5.23;;;5.03;;
57615;SDS011;43816;52.054;-9.494;2023-07-24T00:08:25;5.33;;;5.13;;
57615;SDS011;43816;52.054;-9.494;2023-07-24T00:08:35;5.25;;;5.05;;
57615;SDS011;43816;52.054;-9.494;2023-07-24T00:08:46;5.10;;;4.90;;
57615;SDS011;43816;52.054;-9.494;2023-07-24T00:08:56;5.20;;;5.00;;
57615;SDS011;43816;52.054;-9.494;2023-07-24T00:09:06;5.10;;;4.97;;
57615;SDS011;43816;52.054;-9.494;2023-07-24T00:09:17;5.10;;;4.90;;
57615;SDS011;43816;52.054;-9.494;2023-07-24T00:09:27;5.00;;;4.80;;
57615;SDS011;43816;52.054;-9.494;2023-07-24T00:09:40;5.00;;;4.80;;
57615;SDS011;43816;52.054;-9.494;2023-07-24T00:09:50;5.00;;;4.80;;
57615;SDS011;43816;52.054;-9.494;2023-07-24T00:10:00;5.30;;;5.10;;
57615;SDS011;43816;52.054;-9.494;2023-07-24T00:10:11;5.37;;;5.17;;
57615;SDS011;43816;52.054;-9.494;2023-07-24T00:10:21;5.40;;;5.20;;
57615;SDS011;43816;52.054;-9.494;2023-07-24T00:10:31;5.25;;;5.05;;
57615;SDS011;43816;52.054;-9.494;2023-07-24T00:10:41;5.13;;;4.93;;
57615;SDS011;43816;52.054;-9.494;2023-07-24T00:10:52;5.00;;;4.80;;
57615;SDS011;43816;52.054;-9.494;2023-07-24T00:11:08;4.90;;;4.72;;
57615;SDS011;43816;52.054;-9.494;2023-07-24T00:11:19;4.70;;;4.60;;
57615;SDS011;43816;52.054;-9.494;2023-07-24T00:11:31;4.85;;;4.72;;
57615;SDS011;43816;52.054;-9.494;2023-07-24T00:11:42;5.10;;;4.90;;
57615;SDS011;43816;52.054;-9.494;2023-07-24T00:11:52;5.22;;;5.03;;
57615;SDS011;43816;52.054;-9.494;2023-07-24T00:12:02;5.30;;;5.10;;
57615;SDS011;43816;52.054;-9.494;2023-07-24T00:12:13;5.40;;;5.20;;
57615;SDS011;43816;52.054;-9.494;2023-07-24T00:12:23;5.30;;;5.10;;
57615;SDS011;43816;52.054;-9.494;2023-07-24T00:12:34;5.17;;;4.97;;
57615;SDS011;43816;52.054;-9.494;2023-07-24T00:12:44;4.97;;;4.78;;
57615;SDS011;43816;52.054;-9.494;2023-07-24T00:12:54;5.00;;;4.80;;
57615;SDS011;43816;52.054;-9.494;2023-07-24T00:13:07;5.00;;;4.80;;
57615;SDS011;43816;52.054;-9.494;2023-07-24T00:13:17;5.30;;;5.10;;
57615;SDS011;43816;52.054;-9.494;2023-07-24T00:13:28;5.30;;;5.10;;
57615;SDS011;43816;52.054;-9.494;2023-07-24T00:13:38;5.25;;;5.05;;
57615;SDS011;43816;52.054;-9.494;2023-07-24T00:13:48;5.10;;;4.90;;
57615;SDS011;43816;52.054;-9.494;2023-07-24T00:13:58;5.20;;;5.00;;
57615;SDS011;43816;52.054;-9.494;2023-07-24T00:14:09;5.10;;;4.90;;
57615;SDS011;43816;52.054;-9.494;2023-07-24T00:14:19;5.03;;;4.83;;
57615;SDS011;43816;52.054;-9.494;2023-07-24T00:14:29;5.20;;;5.00;;
57615;SDS011;43816;52.054;-9.494;2023-07-24T00:14:40;5.30;;;5.10;;
57615;SDS011;43816;52.054;-9.494;2023-07-24T00:14:51;5.37;;;5.17;;
57615;SDS011;43816;52.054;-9.494;2023-07-24T00:15:02;5.10;;;4.90;;
57615;SDS011;43816;52.054;-9.494;2023-07-24T00:15:13;5.03;;;4.82;;
57615;SDS011;43816;52.054;-9.494;2023-07-24T00:15:23;5.03;;;4.83;;
57615;SDS011;43816;52.054;-9.494;2023-07-24T00:15:33;5.10;;;4.90;;
57615;SDS011;43816;52.054;-9.494;2023-07-24T00:15:44;5.00;;;4.83;;
57615;SDS011;43816;52.054;-9.494;2023-07-24T00:15:54;4.87;;;4.73;;
57615;SDS011;43816;52.054;-9.494;2023-07-24T00:16:08;5.10;;;4.90;;
57615;SDS011;43816;52.054;-9.494;2023-07-24T00:16:21;5.15;;;4.95;;
57615;SDS011;43816;52.054;-9.494;2023-07-24T00:16:34;5.05;;;4.85;;
57615;SDS011;43816;52.054;-9.494;2023-07-24T00:16:45;4.90;;;4.72;;
57615;SDS011;43816;52.054;-9.494;2023-07-24T00:16:55;5.00;;;4.80;;
57615;SDS011;43816;52.054;-9.494;2023-07-24T00:17:05;5.23;;;5.03;;
57615;SDS011;43816;52.054;-9.494;2023-07-24T00:17:15;5.28;;;5.07;;
57615;SDS011;43816;52.054;-9.494;2023-07-24T00:17:26;5.30;;;5.10;;
57615;SDS011;43816;52.054;-9.494;2023-07-24T00:17:36;5.00;;;4.80;;
57615;SDS011;43816;52.054;-9.494;2023-07-24T00:17:46;4.97;;;4.78;;
57615;SDS011;43816;52.054;-9.494;2023-07-24T00:17:57;4.77;;;4.60;;
57615;SDS011;43816;52.054;-9.494;2023-07-24T00:18:07;4.90;;;4.70;;
57615;SDS011;43816;52.054;-9.494;2023-07-24T00:18:17;5.00;;;4.80;;
57615;SDS011;43816;52.054;-9.494;2023-07-24T00:18:30;4.83;;;4.63;;
57615;SDS011;43816;52.054;-9.494;2023-07-24T00:18:41;5.00;;;4.80;;
57615;SDS011;43816;52.054;-9.494;2023-07-24T00:18:51;4.90;;;4.70;;
57615;SDS011;43816;52.054;-9.494;2023-07-24T00:19:01;4.97;;;4.78;;
57615;SDS011;43816;52.054;-9.494;2023-07-24T00:19:11;4.93;;;4.73;;
57615;SDS011;43816;52.054;-9.494;2023-07-24T00:19:22;5.10;;;4.90;;
57615;SDS011;43816;52.054;-9.494;2023-07-24T00:19:32;5.15;;;4.95;;
57615;SDS011;43816;52.054;-9.494;2023-07-24T00:19:42;5.20;;;5.00;;
57615;SDS011;43816;52.054;-9.494;2023-07-24T00:19:53;5.20;;;5.00;;
57615;SDS011;43816;52.054;-9.494;2023-07-24T00:20:03;5.13;;;4.93;;
57615;SDS011;43816;52.054;-9.494;2023-07-24T00:20:14;5.10;;;4.90;;
57615;SDS011;43816;52.054;-9.494;2023-07-24T00:20:25;5.10;;;4.90;;
57615;SDS011;43816;52.054;-9.494;2023-07-24T00:20:38;5.28;;;5.07;;
57615;SDS011;43816;52.054;-9.494;2023-07-24T00:20:51;5.05;;;4.85;;
57615;SDS011;43816;52.054;-9.494;2023-07-24T00:21:01;4.90;;;4.75;;
57615;SDS011;43816;52.054;-9.494;2023-07-24T00:21:11;4.77;;;4.67;;
57615;SDS011;43816;52.054;-9.494;2023-07-24T00:21:22;5.15;;;4.95;;
57615;SDS011;43816;52.054;-9.494;2023-07-24T00:21:32;5.33;;;5.13;;
57615;SDS011;43816;52.054;-9.494;2023-07-24T00:21:43;5.30;;;5.10;;
57615;SDS011;43816;52.054;-9.494;2023-07-24T00:21:56;5.20;;;5.00;;
57615;SDS011;43816;52.054;-9.494;2023-07-24T00:22:06;5.20;;;5.00;;
57615;SDS011;43816;52.054;-9.494;2023-07-24T00:22:17;5.40;;;5.20;;
57615;SDS011;43816;52.054;-9.494;2023-07-24T00:22:27;5.38;;;5.07;;
57615;SDS011;43816;52.054;-9.494;2023-07-24T00:22:37;5.20;;;5.00;;
57615;SDS011;43816;52.054;-9.494;2023-07-24T00:22:48;5.15;;;4.95;;
57615;SDS011;43816;52.054;-9.494;2023-07-24T00:22:58;5.23;;;5.03;;
57615;SDS011;43816;52.054;-9.494;2023-07-24T00:23:08;5.20;;;5.00;;
57615;SDS011;43816;52.054;-9.494;2023-07-24T00:23:19;5.10;;;4.90;;
57615;SDS011;43816;52.054;-9.494;2023-07-24T00:23:29;5.10;;;4.90;;
57615;SDS011;43816;52.054;-9.494;2023-07-24T00:23:39;5.20;;;5.00;;
57615;SDS011;43816;52.054;-9.494;2023-07-24T00:23:50;5.20;;;5.00;;
57615;SDS011;43816;52.054;-9.494;2023-07-24T00:24:00;5.20;;;5.00;;
57615;SDS011;43816;52.054;-9.494;2023-07-24T00:24:10;5.20;;;5.00;;
57615;SDS011;43816;52.054;-9.494;2023-07-24T00:24:21;5.13;;;4.93;;
57615;SDS011;43816;52.054;-9.494;2023-07-24T00:24:31;5.03;;;4.83;;
57615;SDS011;43816;52.054;-9.494;2023-07-24T00:24:44;5.00;;;4.80;;
57615;SDS011;43816;52.054;-9.494;2023-07-24T00:24:58;5.18;;;4.97;;
57615;SDS011;43816;52.054;-9.494;2023-07-24T00:25:11;5.70;;;5.40;;
57615;SDS011;43816;52.054;-9.494;2023-07-24T00:25:21;5.68;;;5.38;;
57615;SDS011;43816;52.054;-9.494;2023-07-24T00:25:32;5.15;;;4.95;;
57615;SDS011;43816;52.054;-9.494;2023-07-24T00:25:44;4.97;;;4.77;;
57615;SDS011;43816;52.054;-9.494;2023-07-24T00:25:55;4.93;;;4.72;;
57615;SDS011;43816;52.054;-9.494;2023-07-24T00:26:14;4.93;;;4.80;;
57615;SDS011;43816;52.054;-9.494;2023-07-24T00:26:24;5.00;;;4.80;;
57615;SDS011;43816;52.054;-9.494;2023-07-24T00:26:34;5.05;;;4.85;;
57615;SDS011;43816;52.054;-9.494;2023-07-24T00:26:45;5.13;;;4.93;;
57615;SDS011;43816;52.054;-9.494;2023-07-24T00:26:58;5.13;;;4.93;;
57615;SDS011;43816;52.054;-9.494;2023-07-24T00:27:08;5.40;;;5.20;;
57615;SDS011;43816;52.054;-9.494;2023-07-24T00:27:19;5.40;;;5.20;;
57615;SDS011;43816;52.054;-9.494;2023-07-24T00:27:29;5.27;;;5.07;;
57615;SDS011;43816;52.054;-9.494;2023-07-24T00:27:39;4.93;;;4.72;;
57615;SDS011;43816;52.054;-9.494;2023-07-24T00:27:50;4.80;;;4.60;;
57615;SDS011;43816;52.054;-9.494;2023-07-24T00:28:00;4.80;;;4.60;;
57615;SDS011;43816;52.054;-9.494;2023-07-24T00:28:10;4.82;;;4.63;;
57615;SDS011;43816;52.054;-9.494;2023-07-24T00:28:20;4.93;;;4.77;;
57615;SDS011;43816;52.054;-9.494;2023-07-24T00:28:32;5.03;;;4.93;;
57615;SDS011;43816;52.054;-9.494;2023-07-24T00:28:45;5.32;;;5.13;;
57615;SDS011;43816;52.054;-9.494;2023-07-24T00:28:55;5.45;;;5.25;;
57615;SDS011;43816;52.054;-9.494;2023-07-24T00:29:09;5.20;;;5.00;;
57615;SDS011;43816;52.054;-9.494;2023-07-24T00:29:19;5.10;;;4.90;;
57615;SDS011;43816;52.054;-9.494;2023-07-24T00:29:30;5.10;;;4.90;;
57615;SDS011;43816;52.054;-9.494;2023-07-24T00:29:40;5.28;;;5.07;;
57615;SDS011;43816;52.054;-9.494;2023-07-24T00:29:50;5.23;;;5.03;;
57615;SDS011;43816;52.054;-9.494;2023-07-24T00:30:01;5.40;;;5.20;;
57615;SDS011;43816;52.054;-9.494;2023-07-24T00:30:14;5.50;;;5.25;;
57615;SDS011;43816;52.054;-9.494;2023-07-24T00:30:25;5.30;;;5.10;;
57615;SDS011;43816;52.054;-9.494;2023-07-24T00:30:35;5.33;;;5.10;;
57615;SDS011;43816;52.054;-9.494;2023-07-24T00:30:45;5.03;;;4.83;;
57615;SDS011;43816;52.054;-9.494;2023-07-24T00:30:56;5.13;;;4.90;;
57615;SDS011;43816;52.054;-9.494;2023-07-24T00:31:06;5.10;;;4.90;;
57615;SDS011;43816;52.054;-9.494;2023-07-24T00:31:16;5.10;;;4.90;;
57615;SDS011;43816;52.054;-9.494;2023-07-24T00:31:29;5.10;;;4.90;;
57615;SDS011;43816;52.054;-9.494;2023-07-24T00:31:39;5.38;;;5.18;;
57615;SDS011;43816;52.054;-9.494;2023-07-24T00:31:50;5.10;;;4.90;;
57615;SDS011;43816;52.054;-9.494;2023-07-24T00:32:00;4.90;;;4.70;;
57615;SDS011;43816;52.054;-9.494;2023-07-24T00:32:11;4.73;;;4.53;;
57615;SDS011;43816;52.054;-9.494;2023-07-24T00:32:21;5.05;;;4.88;;
57615;SDS011;43816;52.054;-9.494;2023-07-24T00:32:31;5.23;;;5.03;;
57615;SDS011;43816;52.054;-9.494;2023-07-24T00:32:44;5.30;;;5.10;;
57615;SDS011;43816;52.054;-9.494;2023-07-24T00:32:54;5.15;;;4.95;;
57615;SDS011;43816;52.054;-9.494;2023-07-24T00:33:05;5.20;;;5.00;;
57615;SDS011;43816;52.054;-9.494;2023-07-24T00:33:15;5.20;;;5.00;;
57615;SDS011;43816;52.054;-9.494;2023-07-24T00:33:25;5.23;;;5.03;;
57615;SDS011;43816;52.054;-9.494;2023-07-24T00:33:36;4.97;;;4.78;;
57615;SDS011;43816;52.054;-9.494;2023-07-24T00:33:46;5.00;;;4.80;;
57615;SDS011;43816;52.054;-9.494;2023-07-24T00:33:56;4.90;;;4.70;;
57615;SDS011;43816;52.054;-9.494;2023-07-24T00:34:06;5.00;;;4.80;;
57615;SDS011;43816;52.054;-9.494;2023-07-24T00:34:17;5.07;;;4.87;;
57615;SDS011;43816;52.054;-9.494;2023-07-24T00:34:27;5.30;;;5.10;;
57615;SDS011;43816;52.054;-9.494;2023-07-24T00:34:37;5.60;;;5.40;;
57615;SDS011;43816;52.054;-9.494;2023-07-24T00:34:48;5.70;;;5.50;;
57615;SDS011;43816;52.054;-9.494;2023-07-24T00:34:58;5.57;;;5.37;;
57615;SDS011;43816;52.054;-9.494;2023-07-24T00:35:08;5.47;;;5.28;;
57615;SDS011;43816;52.054;-9.494;2023-07-24T00:35:22;5.20;;;5.00;;
57615;SDS011;43816;52.054;-9.494;2023-07-24T00:35:32;5.35;;;5.15;;
57615;SDS011;43816;52.054;-9.494;2023-07-24T00:35:45;5.30;;;5.10;;
57615;SDS011;43816;52.054;-9.494;2023-07-24T00:35:56;5.22;;;5.03;;
57615;SDS011;43816;52.054;-9.494;2023-07-24T00:36:07;5.10;;;4.90;;
57615;SDS011;43816;52.054;-9.494;2023-07-24T00:36:17;5.20;;;5.00;;
57615;SDS011;43816;52.054;-9.494;2023-07-24T00:36:27;5.18;;;4.97;;
57615;SDS011;43816;52.054;-9.494;2023-07-24T00:36:38;5.10;;;4.90;;
57615;SDS011;43816;52.054;-9.494;2023-07-24T00:36:48;5.00;;;4.80;;
57615;SDS011;43816;52.054;-9.494;2023-07-24T00:36:58;4.95;;;4.75;;
57615;SDS011;43816;52.054;-9.494;2023-07-24T00:37:08;4.90;;;4.70;;
57615;SDS011;43816;52.054;-9.494;2023-07-24T00:37:19;4.90;;;4.70;;
57615;SDS011;43816;52.054;-9.494;2023-07-24T00:37:29;5.15;;;4.95;;
57615;SDS011;43816;52.054;-9.494;2023-07-24T00:37:39;5.30;;;5.10;;
57615;SDS011;43816;52.054;-9.494;2023-07-24T00:37:50;5.33;;;5.13;;
57615;SDS011;43816;52.054;-9.494;2023-07-24T00:38:00;5.20;;;5.00;;
57615;SDS011;43816;52.054;-9.494;2023-07-24T00:38:10;5.30;;;5.10;;
57615;SDS011;43816;52.054;-9.494;2023-07-24T00:38:20;5.30;;;5.10;;
57615;SDS011;43816;52.054;-9.494;2023-07-24T00:38:31;5.22;;;5.03;;
57615;SDS011;43816;52.054;-9.494;2023-07-24T00:38:41;5.00;;;4.80;;
57615;SDS011;43816;52.054;-9.494;2023-07-24T00:38:51;5.03;;;4.83;;
57615;SDS011;43816;52.054;-9.494;2023-07-24T00:39:02;5.10;;;4.90;;
57615;SDS011;43816;52.054;-9.494;2023-07-24T00:39:14;5.07;;;4.87;;
57615;SDS011;43816;52.054;-9.494;2023-07-24T00:39:25;4.93;;;4.80;;
57615;SDS011;43816;52.054;-9.494;2023-07-24T00:39:35;4.93;;;4.83;;
57615;SDS011;43816;52.054;-9.494;2023-07-24T00:39:45;5.20;;;5.00;;
57615;SDS011;43816;52.054;-9.494;2023-07-24T00:39:56;5.28;;;5.07;;
57615;SDS011;43816;52.054;-9.494;2023-07-24T00:40:06;5.20;;;5.00;;
57615;SDS011;43816;52.054;-9.494;2023-07-24T00:40:17;5.10;;;4.90;;
57615;SDS011;43816;52.054;-9.494;2023-07-24T00:40:27;4.90;;;4.70;;
57615;SDS011;43816;52.054;-9.494;2023-07-24T00:40:38;4.82;;;4.63;;
57615;SDS011;43816;52.054;-9.494;2023-07-24T00:40:48;4.80;;;4.60;;
57615;SDS011;43816;52.054;-9.494;2023-07-24T00:40:59;5.00;;;4.80;;
57615;SDS011;43816;52.054;-9.494;2023-07-24T00:41:09;5.00;;;4.80;;
57615;SDS011;43816;52.054;-9.494;2023-07-24T00:41:19;5.07;;;4.87;;
57615;SDS011;43816;52.054;-9.494;2023-07-24T00:41:29;5.00;;;4.80;;
57615;SDS011;43816;52.054;-9.494;2023-07-24T00:41:40;4.90;;;4.70;;
57615;SDS011;43816;52.054;-9.494;2023-07-24T00:41:53;5.00;;;4.70;;
57615;SDS011;43816;52.054;-9.494;2023-07-24T00:42:03;5.03;;;4.75;;
57615;SDS011;43816;52.054;-9.494;2023-07-24T00:42:14;5.20;;;4.90;;
57615;SDS011;43816;52.054;-9.494;2023-07-24T00:42:27;5.10;;;4.90;;
57615;SDS011;43816;52.054;-9.494;2023-07-24T00:42:37;5.00;;;4.80;;
57615;SDS011;43816;52.054;-9.494;2023-07-24T00:42:47;5.10;;;4.93;;
57615;SDS011;43816;52.054;-9.494;2023-07-24T00:43:01;5.07;;;4.88;;
57615;SDS011;43816;52.054;-9.494;2023-07-24T00:43:11;5.10;;;4.90;;
57615;SDS011;43816;52.054;-9.494;2023-07-24T00:43:21;5.10;;;4.90;;
57615;SDS011;43816;52.054;-9.494;2023-07-24T00:43:32;5.03;;;4.82;;
57615;SDS011;43816;52.054;-9.494;2023-07-24T00:43:42;5.27;;;5.07;;
57615;SDS011;43816;52.054;-9.494;2023-07-24T00:43:52;5.23;;;5.03;;
57615;SDS011;43816;52.054;-9.494;2023-07-24T00:44:02;5.20;;;5.00;;
57615;SDS011;43816;52.054;-9.494;2023-07-24T00:44:13;5.10;;;4.90;;
57615;SDS011;43816;52.054;-9.494;2023-07-24T00:44:23;5.03;;;4.82;;
57615;SDS011;43816;52.054;-9.494;2023-07-24T00:44:36;5.20;;;5.00;;
57615;SDS011;43816;52.054;-9.494;2023-07-24T00:44:47;5.20;;;5.00;;
57615;SDS011;43816;52.054;-9.494;2023-07-24T00:44:57;5.10;;;4.90;;
57615;SDS011;43816;52.054;-9.494;2023-07-24T00:45:07;5.07;;;4.88;;
57615;SDS011;43816;52.054;-9.494;2023-07-24T00:45:18;5.10;;;4.90;;
57615;SDS011;43816;52.054;-9.494;2023-07-24T00:45:31;5.20;;;5.00;;
57615;SDS011;43816;52.054;-9.494;2023-07-24T00:45:44;5.15;;;4.95;;
57615;SDS011;43816;52.054;-9.494;2023-07-24T00:45:56;5.20;;;5.00;;
57615;SDS011;43816;52.054;-9.494;2023-07-24T00:46:08;5.30;;;5.10;;
57615;SDS011;43816;52.054;-9.494;2023-07-24T00:46:20;5.30;;;5.10;;
57615;SDS011;43816;52.054;-9.494;2023-07-24T00:46:30;5.20;;;5.00;;
57615;SDS011;43816;52.054;-9.494;2023-07-24T00:46:41;5.20;;;5.00;;
57615;SDS011;43816;52.054;-9.494;2023-07-24T00:46:51;5.37;;;5.17;;
57615;SDS011;43816;52.054;-9.494;2023-07-24T00:47:03;5.32;;;5.13;;
57615;SDS011;43816;52.054;-9.494;2023-07-24T00:47:14;5.20;;;5.00;;
57615;SDS011;43816;52.054;-9.494;2023-07-24T00:47:25;5.00;;;4.80;;
57615;SDS011;43816;52.054;-9.494;2023-07-24T00:47:37;5.20;;;5.00;;
57615;SDS011;43816;52.054;-9.494;2023-07-24T00:47:50;5.20;;;5.00;;
57615;SDS011;43816;52.054;-9.494;2023-07-24T00:48:00;5.18;;;4.97;;
57615;SDS011;43816;52.054;-9.494;2023-07-24T00:48:11;4.90;;;4.70;;
57615;SDS011;43816;52.054;-9.494;2023-07-24T00:48:21;4.87;;;4.70;;
57615;SDS011;43816;52.054;-9.494;2023-07-24T00:48:32;5.00;;;4.88;;
57615;SDS011;43816;52.054;-9.494;2023-07-24T00:48:42;5.37;;;5.17;;
57615;SDS011;43816;52.054;-9.494;2023-07-24T00:48:53;5.40;;;5.20;;
57615;SDS011;43816;52.054;-9.494;2023-07-24T00:49:03;5.20;;;5.00;;
57615;SDS011;43816;52.054;-9.494;2023-07-24T00:49:14;5.05;;;4.85;;
57615;SDS011;43816;52.054;-9.494;2023-07-24T00:49:25;5.15;;;4.95;;
57615;SDS011;43816;52.054;-9.494;2023-07-24T00:49:36;5.32;;;5.13;;
57615;SDS011;43816;52.054;-9.494;2023-07-24T00:49:46;5.30;;;5.10;;
57615;SDS011;43816;52.054;-9.494;2023-07-24T00:50:00;5.30;;;5.10;;
57615;SDS011;43816;52.054;-9.494;2023-07-24T00:50:11;4.97;;;4.78;;
57615;SDS011;43816;52.054;-9.494;2023-07-24T00:50:22;4.88;;;4.70;;
57615;SDS011;43816;52.054;-9.494;2023-07-24T00:50:33;4.80;;;4.70;;
57615;SDS011;43816;52.054;-9.494;2023-07-24T00:50:44;5.07;;;4.88;;
57615;SDS011;43816;52.054;-9.494;2023-07-24T00:50:55;5.07;;;4.88;;
57615;SDS011;43816;52.054;-9.494;2023-07-24T00:51:06;5.10;;;4.90;;
57615;SDS011;43816;52.054;-9.494;2023-07-24T00:51:17;5.10;;;4.90;;
57615;SDS011;43816;52.054;-9.494;2023-07-24T00:51:27;5.10;;;4.90;;
57615;SDS011;43816;52.054;-9.494;2023-07-24T00:51:38;5.00;;;4.80;;
57615;SDS011;43816;52.054;-9.494;2023-07-24T00:51:49;5.00;;;4.80;;
57615;SDS011;43816;52.054;-9.494;2023-07-24T00:51:59;5.25;;;5.05;;
57615;SDS011;43816;52.054;-9.494;2023-07-24T00:52:10;5.23;;;5.03;;
57615;SDS011;43816;52.054;-9.494;2023-07-24T00:52:22;5.43;;;5.22;;
57615;SDS011;43816;52.054;-9.494;2023-07-24T00:52:32;5.20;;;5.00;;
57615;SDS011;43816;52.054;-9.494;2023-07-24T00:52:43;5.10;;;4.90;;
57615;SDS011;43816;52.054;-9.494;2023-07-24T00:52:53;5.03;;;4.83;;
57615;SDS011;43816;52.054;-9.494;2023-07-24T00:53:04;5.05;;;4.85;;
57615;SDS011;43816;52.054;-9.494;2023-07-24T00:53:15;5.25;;;5.05;;
57615;SDS011;43816;52.054;-9.494;2023-07-24T00:53:27;5.07;;;4.88;;
57615;SDS011;43816;52.054;-9.494;2023-07-24T00:53:37;4.88;;;4.78;;
57615;SDS011;43816;52.054;-9.494;2023-07-24T00:53:48;4.63;;;4.53;;
57615;SDS011;43816;52.054;-9.494;2023-07-24T00:54:00;4.77;;;4.63;;
57615;SDS011;43816;52.054;-9.494;2023-07-24T00:54:11;4.80;;;4.60;;
57615;SDS011;43816;52.054;-9.494;2023-07-24T00:54:23;5.00;;;4.80;;
57615;SDS011;43816;52.054;-9.494;2023-07-24T00:54:34;4.93;;;4.72;;
57615;SDS011;43816;52.054;-9.494;2023-07-24T00:54:48;5.00;;;4.80;;
57615;SDS011;43816;52.054;-9.494;2023-07-24T00:54:59;5.00;;;4.80;;
57615;SDS011;43816;52.054;-9.494;2023-07-24T00:55:10;4.88;;;4.72;;
57615;SDS011;43816;52.054;-9.494;2023-07-24T00:55:23;4.90;;;4.80;;
57615;SDS011;43816;52.054;-9.494;2023-07-24T00:55:33;5.38;;;5.18;;
57615;SDS011;43816;52.054;-9.494;2023-07-24T00:55:44;5.30;;;5.10;;
57615;SDS011;43816;52.054;-9.494;2023-07-24T00:55:55;5.20;;;5.00;;
57615;SDS011;43816;52.054;-9.494;2023-07-24T00:56:05;4.78;;;4.68;;
57615;SDS011;43816;52.054;-9.494;2023-07-24T00:56:16;4.75;;;4.65;;
57615;SDS011;43816;52.054;-9.494;2023-07-24T00:56:27;4.80;;;4.70;;
57615;SDS011;43816;52.054;-9.494;2023-07-24T00:56:38;4.72;;;4.63;;
57615;SDS011;43816;52.054;-9.494;2023-07-24T00:56:49;4.70;;;4.60;;
57615;SDS011;43816;52.054;-9.494;2023-07-24T00:56:59;4.80;;;4.60;;
57615;SDS011;43816;52.054;-9.494;2023-07-24T00:57:11;4.80;;;4.60;;
57615;SDS011;43816;52.054;-9.494;2023-07-24T00:57:22;4.87;;;4.67;;
57615;SDS011;43816;52.054;-9.494;2023-07-24T00:57:33;4.70;;;4.50;;
57615;SDS011;43816;52.054;-9.494;2023-07-24T00:57:43;4.70;;;4.60;;
57615;SDS011;43816;52.054;-9.494;2023-07-24T00:57:54;4.60;;;4.50;;
57615;SDS011;43816;52.054;-9.494;2023-07-24T00:58:07;4.68;;;4.57;;
57615;SDS011;43816;52.054;-9.494;2023-07-24T00:58:20;5.15;;;4.95;;
57615;SDS011;43816;52.054;-9.494;2023-07-24T00:58:35;5.47;;;5.28;;
57615;SDS011;43816;52.054;-9.494;2023-07-24T00:58:47;5.28;;;5.07;;
57615;SDS011;43816;52.054;-9.494;2023-07-24T00:58:59;5.07;;;4.88;;
57615;SDS011;43816;52.054;-9.494;2023-07-24T00:59:10;5.10;;;4.90;;
57615;SDS011;43816;52.054;-9.494;2023-07-24T00:59:21;5.00;;;4.90;;
57615;SDS011;43816;52.054;-9.494;2023-07-24T00:59:32;5.00;;;4.80;;
57615;SDS011;43816;52.054;-9.494;2023-07-24T00:59:43;4.85;;;4.75;;
57615;SDS011;43816;52.054;-9.494;2023-07-24T00:59:54;4.90;;;4.80;;
57615;SDS011;43816;52.054;-9.494;2023-07-24T01:00:05;4.90;;;4.70;;
57615;SDS011;43816;52.054;-9.494;2023-07-24T01:00:16;4.88;;;4.68;;
57615;SDS011;43816;52.054;-9.494;2023-07-24T01:00:27;4.77;;;4.57;;
57615;SDS011;43816;52.054;-9.494;2023-07-24T01:00:38;5.00;;;4.83;;
57615;SDS011;43816;52.054;-9.494;2023-07-24T01:00:49;5.10;;;4.90;;
57615;SDS011;43816;52.054;-9.494;2023-07-24T01:01:00;5.10;;;4.90;;
57615;SDS011;43816;52.054;-9.494;2023-07-24T01:01:10;5.00;;;4.80;;
57615;SDS011;43816;52.054;-9.494;2023-07-24T01:01:21;5.00;;;4.90;;
57615;SDS011;43816;52.054;-9.494;2023-07-24T01:01:32;5.05;;;4.88;;
57615;SDS011;43816;52.054;-9.494;2023-07-24T01:01:42;4.90;;;4.70;;
57615;SDS011;43816;52.054;-9.494;2023-07-24T01:01:53;5.10;;;4.90;;
57615;SDS011;43816;52.054;-9.494;2023-07-24T01:02:03;5.10;;;4.90;;
57615;SDS011;43816;52.054;-9.494;2023-07-24T01:02:14;5.10;;;4.90;;
57615;SDS011;43816;52.054;-9.494;2023-07-24T01:02:25;5.20;;;5.00;;
57615;SDS011;43816;52.054;-9.494;2023-07-24T01:02:36;5.15;;;4.95;;
57615;SDS011;43816;52.054;-9.494;2023-07-24T01:02:46;5.20;;;5.00;;
57615;SDS011;43816;52.054;-9.494;2023-07-24T01:02:59;5.05;;;4.85;;
57615;SDS011;43816;52.054;-9.494;2023-07-24T01:03:10;5.22;;;5.03;;
57615;SDS011;43816;52.054;-9.494;2023-07-24T01:03:20;5.40;;;5.10;;
57615;SDS011;43816;52.054;-9.494;2023-07-24T01:03:34;5.30;;;5.10;;
57615;SDS011;43816;52.054;-9.494;2023-07-24T01:03:45;5.10;;;4.90;;
57615;SDS011;43816;52.054;-9.494;2023-07-24T01:03:56;5.20;;;5.00;;
57615;SDS011;43816;52.054;-9.494;2023-07-24T01:04:07;5.20;;;5.00;;
57615;SDS011;43816;52.054;-9.494;2023-07-24T01:04:18;5.25;;;5.05;;
57615;SDS011;43816;52.054;-9.494;2023-07-24T01:04:29;5.20;;;5.00;;
57615;SDS011;43816;52.054;-9.494;2023-07-24T01:04:39;5.07;;;4.88;;